Time;durP1;ratioP1;P1;durP2;ratioP2;P2;SDS_P1;SDS_P2;PMS_P1;PMS_P2;Temp;Humidity;BMP_temperature;BMP_pressure;BME280_temperature;BME280_humidity;BME280_pressure;Samples;Min_cycle;Max_cycle;Signal;HPM_P1;HPM_P2
2023/07/03 00:01:51;;;;;;;1.92;1.20;;;21.70;62.30;;;;;;6270105;28;20040;-72
2023/07/03 00:04:51;;;;;;;1.25;0.90;;;21.70;62.30;;;;;;6270576;28;20121;-73
2023/07/03 00:07:52;;;;;;;1.23;0.95;;;21.70;62.30;;;;;;6270485;28;20044;-73
2023/07/03 00:11:03;;;;;;;1.02;0.90;;;21.70;62.20;;;;;;6264440;28;20021;-74
2023/07/03 00:14:04;;;;;;;1.98;1.23;;;21.70;62.20;;;;;;6270667;28;20040;-73
2023/07/03 00:17:07;;;;;;;2.42;0.85;;;21.70;62.30;;;;;;6269527;28;20029;-75
2023/07/03 00:20:13;;;;;;;1.67;1.02;;;21.70;62.30;;;;;;6245851;28;20030;-73
2023/07/03 00:23:14;;;;;;;0.98;0.80;;;21.70;62.30;;;;;;6228796;28;20282;-73
2023/07/03 00:26:14;;;;;;;1.20;1.02;;;21.70;62.30;;;;;;6256755;28;20426;-73
2023/07/03 00:29:15;;;;;;;1.35;0.93;;;21.70;62.40;;;;;;6270243;28;20104;-73
2023/07/03 00:32:16;;;;;;;1.10;0.88;;;21.70;62.30;;;;;;6270237;28;20060;-73
2023/07/03 00:35:16;;;;;;;1.08;0.98;;;21.70;62.30;;;;;;6269756;28;20013;-73
2023/07/03 00:38:17;;;;;;;1.17;0.95;;;21.70;62.30;;;;;;6270216;28;20071;-73
2023/07/03 00:41:17;;;;;;;1.25;0.98;;;21.70;62.30;;;;;;6269783;28;20057;-73
2023/07/03 00:44:20;;;;;;;1.33;1.00;;;21.70;62.30;;;;;;6270022;28;20097;-74
2023/07/03 00:47:23;;;;;;;1.08;0.80;;;21.70;62.30;;;;;;6269536;28;20025;-73
2023/07/03 00:50:23;;;;;;;1.55;1.00;;;21.70;62.30;;;;;;6268870;28;20505;-72
2023/07/03 00:53:24;;;;;;;1.50;1.00;;;21.70;62.40;;;;;;6268273;28;20025;-73
2023/07/03 00:56:25;;;;;;;1.60;1.00;;;21.70;62.40;;;;;;6268104;28;20052;-73
2023/07/03 00:59:26;;;;;;;1.27;1.10;;;21.70;62.40;;;;;;6267744;28;20025;-72
2023/07/03 01:02:43;;;;;;;2.15;1.08;;;21.70;62.40;;;;;;6267777;28;20438;-73
2023/07/03 01:05:49;;;;;;;1.23;1.00;;;21.70;62.40;;;;;;6268128;28;20013;-73
2023/07/03 01:08:54;;;;;;;0.98;0.80;;;21.70;62.40;;;;;;6268004;28;20025;-73
2023/07/03 01:11:57;;;;;;;1.55;1.00;;;21.70;62.40;;;;;;6267776;28;20025;-73
2023/07/03 01:15:01;;;;;;;1.17;0.90;;;21.70;62.40;;;;;;6267638;28;20511;-73
2023/07/03 01:18:05;;;;;;;1.27;1.00;;;21.70;62.40;;;;;;6264517;28;20017;-72
2023/07/03 01:21:20;;;;;;;1.40;0.80;;;21.70;62.40;;;;;;6267175;28;20479;-72
2023/07/03 01:24:27;;;;;;;1.38;0.95;;;21.70;62.40;;;;;;6268028;28;20028;-73
2023/07/03 01:27:32;;;;;;;1.48;1.05;;;21.70;62.40;;;;;;6267350;28;20099;-73
2023/07/03 01:30:33;;;;;;;;;;;21.70;62.40;;;;;;6267838;28;20045;-72
2023/07/03 01:33:35;;;;;;;0.93;0.80;;;21.70;62.40;;;;;;6267747;28;20542;-72
2023/07/03 01:36:37;;;;;;;2.03;1.05;;;21.70;62.40;;;;;;6267883;28;20074;-73
2023/07/03 01:39:38;;;;;;;1.50;0.90;;;21.70;62.40;;;;;;6267498;28;20017;-73
2023/07/03 01:42:40;;;;;;;1.52;0.93;;;21.70;62.40;;;;;;6267492;28;20021;-73
2023/07/03 01:45:43;;;;;;;1.20;1.02;;;21.70;62.40;;;;;;6267350;28;20091;-73
2023/07/03 01:48:44;;;;;;;0.90;0.80;;;21.70;62.40;;;;;;6267318;28;20029;-73
2023/07/03 01:51:58;;;;;;;1.17;0.90;;;21.70;62.40;;;;;;6267111;28;20040;-73
2023/07/03 01:55:04;;;;;;;1.10;0.98;;;21.70;62.40;;;;;;6249247;28;20025;-73
2023/07/03 01:58:30;;;;;;;1.00;0.80;;;21.70;62.40;;;;;;6266895;28;20033;-73
2023/07/03 02:01:41;;;;;;;2.08;1.10;;;21.70;62.40;;;;;;6266675;28;20477;-72
2023/07/03 02:05:04;;;;;;;1.40;1.00;;;21.70;62.90;;;;;;6267348;28;20025;-72
2023/07/03 02:08:06;;;;;;;1.10;1.00;;;21.70;62.40;;;;;;6267092;28;20558;-73
2023/07/03 02:11:19;;;;;;;0.90;0.80;;;21.70;62.40;;;;;;6266656;28;20033;-73
2023/07/03 02:14:19;;;;;;;1.05;0.90;;;21.70;62.40;;;;;;6267032;28;20483;-73
2023/07/03 02:17:20;;;;;;;1.60;1.08;;;21.70;62.40;;;;;;6267018;28;20036;-73
2023/07/03 02:20:21;;;;;;;1.10;0.80;;;21.70;62.40;;;;;;6266914;28;20037;-73
2023/07/03 02:23:21;;;;;;;1.05;0.93;;;21.70;63.30;;;;;;6266715;28;20037;-72
2023/07/03 02:26:22;;;;;;;1.48;1.00;;;21.70;62.40;;;;;;6267072;28;20573;-73
2023/07/03 02:29:22;;;;;;;1.10;0.98;;;21.70;62.40;;;;;;6266601;28;20031;-72
2023/07/03 02:32:23;;;;;;;1.60;0.95;;;21.70;62.40;;;;;;6266764;28;20100;-73
2023/07/03 02:35:24;;;;;;;1.10;0.95;;;21.70;62.40;;;;;;6266940;28;20025;-73
2023/07/03 02:38:25;;;;;;;1.35;1.15;;;21.70;62.40;;;;;;6266871;28;20052;-73
2023/07/03 02:41:25;;;;;;;1.25;1.00;;;21.70;62.40;;;;;;6269832;28;20472;-73
2023/07/03 02:44:26;;;;;;;0.90;0.68;;;21.70;62.40;;;;;;6271570;28;20035;-72
2023/07/03 02:47:26;;;;;;;1.10;0.88;;;21.70;62.40;;;;;;6271204;28;20052;-73
2023/07/03 02:50:27;;;;;;;1.00;0.82;;;21.70;62.40;;;;;;6271395;28;20257;-73
2023/07/03 02:53:27;;;;;;;0.70;0.70;;;21.70;62.40;;;;;;6271171;28;20058;-72
2023/07/03 02:56:28;;;;;;;1.25;0.85;;;21.70;62.40;;;;;;6270793;28;20078;-72
2023/07/03 02:59:29;;;;;;;1.20;0.90;;;21.70;62.40;;;;;;6270867;28;20025;-72
2023/07/03 03:02:30;;;;;;;1.42;1.13;;;21.70;62.40;;;;;;6270436;28;20031;-72
2023/07/03 03:05:30;;;;;;;0.88;0.75;;;21.70;62.40;;;;;;6270839;28;20020;-72
2023/07/03 03:08:31;;;;;;;1.10;0.70;;;21.70;62.40;;;;;;6270755;28;20059;-72
2023/07/03 03:11:32;;;;;;;0.93;0.85;;;21.70;62.40;;;;;;6270623;28;20033;-72
2023/07/03 03:14:33;;;;;;;1.17;1.08;;;21.70;62.40;;;;;;6270854;28;20052;-73
2023/07/03 03:17:33;;;;;;;1.55;0.90;;;21.70;62.40;;;;;;6270438;28;20428;-72
2023/07/03 03:20:34;;;;;;;1.20;0.85;;;21.70;62.40;;;;;;6270804;28;20037;-73
2023/07/03 03:23:34;;;;;;;0.95;0.80;;;21.70;62.40;;;;;;6270169;28;20025;-73
2023/07/03 03:26:35;;;;;;;1.08;0.90;;;21.70;62.40;;;;;;6270610;28;20017;-73
2023/07/03 03:29:38;;;;;;;1.00;0.80;;;21.70;62.40;;;;;;6270311;28;20021;-73
2023/07/03 03:32:39;;;;;;;1.48;0.90;;;21.70;62.40;;;;;;6269968;28;20522;-73
2023/07/03 03:35:41;;;;;;;4.35;1.27;;;21.70;62.40;;;;;;6269878;28;20025;-73
2023/07/03 03:38:42;;;;;;;0.82;0.70;;;21.70;62.40;;;;;;6270557;28;20025;-72
2023/07/03 03:41:42;;;;;;;1.52;0.95;;;21.70;62.40;;;;;;6251921;28;20033;-73
2023/07/03 03:44:43;;;;;;;0.82;0.70;;;21.70;62.40;;;;;;6270417;28;20032;-72
2023/07/03 03:47:45;;;;;;;1.10;0.93;;;21.70;62.40;;;;;;6270047;28;20021;-73
2023/07/03 03:50:46;;;;;;;1.15;0.90;;;21.70;62.40;;;;;;6269677;28;20166;-73
2023/07/03 03:53:46;;;;;;;1.58;0.85;;;21.70;62.40;;;;;;6266749;28;20531;-73
2023/07/03 03:56:47;;;;;;;1.55;1.08;;;21.70;62.40;;;;;;6269468;28;20087;-73
2023/07/03 04:00:41;;;;;;;1.35;1.02;;;21.70;62.40;;;;;;6269746;28;20020;-72
2023/07/03 04:03:41;;;;;;;1.10;0.90;;;21.70;62.40;;;;;;6269298;28;20467;-73
2023/07/03 04:06:43;;;;;;;1.10;0.90;;;21.70;62.40;;;;;;6269293;28;20036;-73
2023/07/03 04:09:43;;;;;;;1.00;0.90;;;21.70;62.40;;;;;;6269384;28;20053;-73
2023/07/03 04:12:44;;;;;;;0.80;0.70;;;21.70;63.30;;;;;;6269182;28;20029;-72
2023/07/03 04:15:54;;;;;;;0.98;0.88;;;21.70;62.40;;;;;;6269554;28;20029;-73
2023/07/03 04:18:54;;;;;;;1.20;0.88;;;21.70;62.50;;;;;;6269536;28;20075;-73
2023/07/03 04:21:55;;;;;;;1.45;1.10;;;21.70;62.40;;;;;;6268611;28;20041;-73
2023/07/03 04:24:55;;;;;;;1.13;0.90;;;21.70;62.40;;;;;;6269039;28;20280;-73
2023/07/03 04:27:56;;;;;;;0.82;0.70;;;21.70;62.40;;;;;;6268319;28;20508;-73
2023/07/03 04:30:57;;;;;;;1.00;0.80;;;21.70;62.40;;;;;;6269020;28;20055;-73
2023/07/03 04:33:58;;;;;;;1.13;1.00;;;21.70;62.40;;;;;;6268478;28;20108;-73
2023/07/03 04:36:58;;;;;;;2.03;0.95;;;21.70;62.40;;;;;;6268683;28;20036;-73
2023/07/03 04:39:59;;;;;;;1.13;0.80;;;21.70;62.40;;;;;;6268610;28;20033;-73
2023/07/03 04:42:59;;;;;;;0.98;0.80;;;21.70;62.40;;;;;;6268326;28;20037;-73
2023/07/03 04:46:03;;;;;;;0.98;0.80;;;21.70;62.40;;;;;;6263781;28;20066;-73
2023/07/03 04:49:04;;;;;;;0.85;0.70;;;21.70;62.40;;;;;;6268048;28;20025;-73
2023/07/03 04:52:05;;;;;;;1.02;0.73;;;21.70;62.40;;;;;;6268242;28;20044;-73
2023/07/03 04:55:11;;;;;;;1.27;1.08;;;21.70;62.40;;;;;;6267742;28;20037;-72
2023/07/03 04:58:11;;;;;;;0.88;0.82;;;21.70;62.40;;;;;;6267762;28;20036;-73
2023/07/03 05:01:12;;;;;;;1.15;0.88;;;21.70;62.40;;;;;;6263197;28;20112;-72
2023/07/03 05:04:12;;;;;;;1.42;0.80;;;21.70;62.40;;;;;;6262828;28;20392;-72
2023/07/03 05:07:19;;;;;;;1.45;1.00;;;21.70;62.40;;;;;;6267954;28;20024;-73
2023/07/03 05:10:22;;;;;;;0.98;0.88;;;21.70;62.40;;;;;;6268504;28;20032;-73
2023/07/03 05:13:22;;;;;;;1.10;0.65;;;21.70;62.40;;;;;;6268123;28;20021;-72
2023/07/03 05:16:23;;;;;;;1.65;0.90;;;21.70;62.50;;;;;;6267514;28;20101;-72
2023/07/03 05:19:24;;;;;;;1.15;0.80;;;21.70;62.40;;;;;;6267462;28;20074;-73
2023/07/03 05:22:24;;;;;;;0.70;0.70;;;21.70;62.40;;;;;;6267496;28;20029;-73
2023/07/03 05:25:25;;;;;;;0.75;0.75;;;21.70;62.40;;;;;;6267775;28;20167;-73
2023/07/03 05:28:26;;;;;;;0.80;0.80;;;21.70;62.40;;;;;;6267498;28;20308;-73
2023/07/03 05:31:26;;;;;;;0.75;0.68;;;21.60;62.30;;;;;;6267602;28;20399;-73
2023/07/03 05:34:27;;;;;;;1.90;0.90;;;21.70;62.40;;;;;;6249586;28;20442;-73
2023/07/03 05:37:28;;;;;;;1.17;0.90;;;21.70;62.40;;;;;;6267631;28;20018;-72
2023/07/03 05:40:29;;;;;;;1.38;0.98;;;21.70;62.40;;;;;;6267498;28;20083;-72
2023/07/03 05:43:30;;;;;;;1.42;0.85;;;21.70;62.40;;;;;;6267526;28;20044;-72
2023/07/03 05:46:30;;;;;;;0.98;0.85;;;21.70;62.40;;;;;;6261639;28;20365;-72
2023/07/03 05:49:31;;;;;;;0.80;0.70;;;21.70;62.40;;;;;;6267304;28;20052;-72
2023/07/03 05:52:33;;;;;;;1.10;0.80;;;21.70;62.40;;;;;;6267840;28;20025;-72
2023/07/03 05:55:34;;;;;;;0.95;0.85;;;21.70;62.50;;;;;;6267731;28;20050;-72
2023/07/03 05:58:34;;;;;;;0.80;0.80;;;21.70;62.40;;;;;;6267793;28;20021;-72
2023/07/03 06:01:35;;;;;;;1.55;1.15;;;21.70;62.40;;;;;;6258299;28;20038;-73
2023/07/03 06:04:36;;;;;;;1.30;1.00;;;21.70;62.40;;;;;;6259074;28;20488;-73
2023/07/03 06:07:37;;;;;;;1.42;1.00;;;21.70;62.50;;;;;;6268057;28;20032;-73
2023/07/03 06:10:38;;;;;;;1.48;0.80;;;21.70;62.40;;;;;;6267251;28;20029;-72
2023/07/03 06:13:38;;;;;;;0.70;0.70;;;21.70;62.40;;;;;;6235018;28;20025;-73
2023/07/03 06:16:39;;;;;;;0.90;0.70;;;21.70;62.40;;;;;;6273296;28;20032;-73
2023/07/03 06:19:40;;;;;;;1.10;0.93;;;21.70;62.40;;;;;;6252455;28;20026;-72
2023/07/03 06:22:42;;;;;;;0.95;0.80;;;21.70;62.50;;;;;;6272915;28;20069;-72
2023/07/03 06:25:42;;;;;;;1.25;0.93;;;21.70;62.40;;;;;;6271489;28;20055;-73
2023/07/03 06:28:43;;;;;;;1.17;0.85;;;21.70;62.40;;;;;;6265403;28;20372;-72
2023/07/03 06:31:43;;;;;;;1.20;0.90;;;21.60;62.30;;;;;;6268565;28;20134;-72
2023/07/03 06:34:44;;;;;;;0.95;0.80;;;21.70;62.40;;;;;;6272651;28;20029;-73
2023/07/03 06:37:45;;;;;;;1.17;0.75;;;21.70;62.40;;;;;;6254877;28;20136;-73
2023/07/03 06:40:55;;;;;;;1.27;1.00;;;21.60;62.30;;;;;;6267988;28;20080;-72
2023/07/03 06:43:56;;;;;;;1.13;0.93;;;21.70;62.40;;;;;;6270449;28;20036;-73
2023/07/03 06:46:57;;;;;;;1.08;0.70;;;21.60;62.30;;;;;;6272488;28;20021;-72
2023/07/03 06:49:58;;;;;;;0.80;0.77;;;21.70;62.40;;;;;;6271747;28;20044;-72
2023/07/03 06:52:58;;;;;;;1.58;0.80;;;21.70;62.40;;;;;;6272890;28;20029;-72
2023/07/03 06:56:00;;;;;;;0.63;0.60;;;21.70;62.40;;;;;;6271846;28;20021;-72
2023/07/03 06:59:01;;;;;;;0.80;0.80;;;21.70;62.40;;;;;;6272292;28;20052;-72
2023/07/03 07:02:03;;;;;;;1.27;0.88;;;21.70;62.40;;;;;;6271837;28;20043;-73
2023/07/03 07:05:04;;;;;;;0.82;0.75;;;21.70;62.40;;;;;;6271876;28;20392;-73
2023/07/03 07:08:05;;;;;;;1.20;0.80;;;21.70;62.40;;;;;;6272251;28;20032;-73
2023/07/03 07:11:14;;;;;;;1.48;0.90;;;21.70;62.40;;;;;;6271650;28;20071;-73
2023/07/03 07:14:14;;;;;;;1.42;1.00;;;21.70;62.40;;;;;;6271684;28;20025;-73
2023/07/03 07:17:15;;;;;;;0.98;0.85;;;21.70;62.40;;;;;;6271490;28;20036;-73
2023/07/03 07:20:15;;;;;;;1.25;1.00;;;21.70;62.40;;;;;;6271750;28;20044;-73
2023/07/03 07:23:16;;;;;;;0.93;0.80;;;21.60;62.30;;;;;;6271605;28;20057;-73
2023/07/03 07:26:17;;;;;;;1.20;0.90;;;21.70;62.40;;;;;;6270551;28;20075;-73
2023/07/03 07:29:18;;;;;;;1.50;0.90;;;21.70;62.40;;;;;;6271583;28;20025;-72
2023/07/03 07:32:18;;;;;;;1.10;1.00;;;21.70;62.40;;;;;;6271795;28;20033;-73
2023/07/03 07:35:19;;;;;;;1.10;0.90;;;21.70;62.40;;;;;;6270791;28;20021;-73
2023/07/03 07:38:21;;;;;;;1.48;0.85;;;21.70;62.40;;;;;;6271835;28;20500;-73
2023/07/03 07:41:24;;;;;;;1.30;1.13;;;21.70;62.40;;;;;;6267254;28;20383;-73
2023/07/03 07:44:26;;;;;;;1.25;0.88;;;21.60;62.30;;;;;;6271532;28;20021;-72
2023/07/03 07:47:28;;;;;;;1.08;0.90;;;21.60;62.30;;;;;;6270637;28;20040;-73
2023/07/03 07:50:29;;;;;;;2.25;1.00;;;21.70;62.40;;;;;;6270651;28;20380;-73
2023/07/03 07:53:30;;;;;;;1.23;1.02;;;21.60;62.30;;;;;;6271719;28;20056;-73
2023/07/03 07:56:31;;;;;;;1.35;0.82;;;21.70;62.40;;;;;;6270326;28;20075;-72
2023/07/03 07:59:34;;;;;;;0.88;0.80;;;21.70;62.40;;;;;;6270576;28;20504;-72
2023/07/03 08:02:35;;;;;;;1.20;1.00;;;21.70;62.40;;;;;;6270216;28;20025;-73
2023/07/03 08:05:37;;;;;;;1.77;0.80;;;21.70;62.40;;;;;;6270458;28;20497;-73
2023/07/03 08:08:37;;;;;;;1.20;0.95;;;21.70;62.40;;;;;;6270622;28;20494;-73
2023/07/03 08:11:41;;;;;;;1.02;0.93;;;21.70;62.40;;;;;;6270359;28;20025;-73
2023/07/03 08:14:42;;;;;;;0.98;0.90;;;21.60;62.30;;;;;;6270664;28;20090;-73
2023/07/03 08:17:42;;;;;;;1.08;0.80;;;21.70;62.50;;;;;;6269337;28;20040;-72
2023/07/03 08:20:44;;;;;;;1.67;0.93;;;21.70;62.40;;;;;;6269773;28;20077;-72
2023/07/03 08:23:44;;;;;;;1.20;0.77;;;21.60;62.30;;;;;;6269447;28;20044;-72
2023/07/03 08:26:45;;;;;;;1.20;0.85;;;21.70;62.40;;;;;;6270063;28;20029;-73
2023/07/03 08:29:46;;;;;;;1.20;1.00;;;21.70;62.40;;;;;;6269339;28;20064;-72
2023/07/03 08:32:47;;;;;;;1.15;0.88;;;21.70;62.40;;;;;;6269651;28;20052;-72
2023/07/03 08:35:48;;;;;;;1.20;1.00;;;21.70;62.40;;;;;;6258750;28;20028;-72
2023/07/03 08:38:49;;;;;;;1.10;0.80;;;21.70;62.40;;;;;;6268444;28;20021;-73
2023/07/03 08:41:58;;;;;;;1.83;0.93;;;21.70;62.40;;;;;;6268729;28;20075;-73
2023/07/03 08:45:00;;;;;;;1.25;0.85;;;21.60;62.30;;;;;;6269619;28;20025;-73
2023/07/03 08:48:05;;;;;;;1.27;0.95;;;21.70;62.40;;;;;;6269306;28;20025;-73
2023/07/03 08:51:10;;;;;;;1.40;0.90;;;21.70;62.40;;;;;;6269264;28;20025;-73
2023/07/03 08:54:20;;;;;;;2.00;1.00;;;21.70;62.40;;;;;;6269076;28;20033;-73
2023/07/03 08:57:23;;;;;;;2.25;1.20;;;21.70;62.40;;;;;;6268890;28;20036;-72
2023/07/03 09:00:24;;;;;;;2.92;1.52;;;21.70;62.40;;;;;;6269524;28;20036;-72
2023/07/03 09:03:55;;;;;;;2.60;1.00;;;21.70;62.40;;;;;;6246368;28;20484;-73
2023/07/03 09:07:02;;;;;;;2.63;1.15;;;21.70;62.30;;;;;;6268344;28;20075;-73
2023/07/03 09:10:10;;;;;;;1.33;1.00;;;21.60;62.20;;;;;;6268932;28;20033;-73
2023/07/03 09:13:20;;;;;;;1.90;1.10;;;21.70;62.30;;;;;;6265628;28;20357;-73
2023/07/03 09:16:22;;;;;;;1.27;1.00;;;21.70;62.30;;;;;;6268786;28;20365;-73
2023/07/03 09:19:26;;;;;;;1.50;0.77;;;21.70;62.30;;;;;;6268429;28;20021;-73
2023/07/03 09:22:46;;;;;;;2.28;1.27;;;21.60;62.30;;;;;;6268190;28;20029;-73
2023/07/03 09:26:11;;;;;;;1.70;1.00;;;21.70;62.30;;;;;;6268940;28;20067;-72
2023/07/03 09:29:12;;;;;;;2.05;1.10;;;21.60;62.10;;;;;;6251619;28;20052;-73
2023/07/03 09:32:23;;;;;;;1.30;1.10;;;21.70;62.10;;;;;;6268532;28;20045;-73
2023/07/03 09:35:35;;;;;;;1.65;1.08;;;21.70;62.20;;;;;;6241495;28;20051;-73
2023/07/03 09:38:36;;;;;;;2.50;1.45;;;21.60;62.20;;;;;;6268712;28;20295;-73
2023/07/03 09:41:37;;;;;;;1.73;0.90;;;21.60;62.10;;;;;;6268428;28;20032;-73
2023/07/03 09:44:41;;;;;;;1.10;0.95;;;21.60;62.10;;;;;;6268576;28;20029;-72
2023/07/03 09:47:59;;;;;;;1.77;1.00;;;21.70;62.10;;;;;;6267827;28;20078;-72
2023/07/03 09:51:05;;;;;;;1.67;1.10;;;21.70;62.20;;;;;;6272677;28;20112;-72
2023/07/03 09:54:17;;;;;;;1.83;1.00;;;21.60;62.00;;;;;;6269465;28;20028;-73
2023/07/03 09:57:26;;;;;;;1.67;1.17;;;21.70;62.10;;;;;;6273554;28;20100;-73
2023/07/03 10:00:26;;;;;;;2.08;1.15;;;21.70;62.10;;;;;;6273356;28;20041;-73
2023/07/03 10:03:30;;;;;;;1.33;0.98;;;21.60;62.00;;;;;;6272603;28;20025;-73
2023/07/03 10:06:30;;;;;;;2.30;1.00;;;21.60;62.00;;;;;;6273612;28;20037;-73
2023/07/03 10:09:34;;;;;;;2.08;1.17;;;21.60;62.00;;;;;;6273057;28;20344;-73
2023/07/03 10:12:39;;;;;;;2.75;1.17;;;21.60;62.00;;;;;;6259490;28;20041;-73
2023/07/03 10:15:41;;;;;;;2.38;1.00;;;21.60;61.90;;;;;;6270073;28;20480;-73
2023/07/03 10:18:46;;;;;;;2.38;1.10;;;21.60;61.90;;;;;;6272886;28;20033;-73
2023/07/03 10:21:48;;;;;;;2.28;1.23;;;21.60;62.00;;;;;;6273161;28;20031;-73
2023/07/03 10:24:49;;;;;;;2.45;1.38;;;21.60;61.90;;;;;;6272170;28;20073;-72
2023/07/03 10:27:55;;;;;;;1.20;0.90;;;21.60;61.90;;;;;;6272822;28;20439;-73
2023/07/03 10:30:59;;;;;;;2.15;1.13;;;21.60;62.70;;;;;;6272715;28;20057;-73
2023/07/03 10:34:07;;;;;;;1.75;1.20;;;21.60;61.80;;;;;;6272267;28;20025;-73
2023/07/03 10:37:12;;;;;;;2.25;1.25;;;21.70;62.80;;;;;;6272273;28;20407;-72
2023/07/03 10:40:22;;;;;;;2.08;1.20;;;21.60;61.80;;;;;;6272373;28;20426;-73
2023/07/03 10:43:26;;;;;;;1.98;1.10;;;21.60;61.60;;;;;;6254478;28;20110;-73
2023/07/03 10:46:36;;;;;;;;;;;21.60;61.60;;;;;;6272558;28;20104;-73
2023/07/03 10:49:37;;;;;;;1.90;1.20;;;21.60;61.90;;;;;;6261683;28;19904;-72
2023/07/03 10:53:04;;;;;;;1.35;0.93;;;21.60;62.00;;;;;;6272777;28;20021;-73
2023/07/03 10:56:21;;;;;;;2.03;1.20;;;21.60;62.00;;;;;;6271539;28;20044;-72
2023/07/03 10:59:27;;;;;;;2.83;1.50;;;21.60;62.10;;;;;;6271914;28;20024;-73
2023/07/03 11:02:43;;;;;;;1.83;1.20;;;21.60;62.00;;;;;;6271416;28;20503;-72
2023/07/03 11:05:53;;;;;;;2.50;1.40;;;21.60;61.90;;;;;;6271937;28;20020;-73
2023/07/03 11:09:17;;;;;;;2.53;1.50;;;21.60;61.90;;;;;;6272591;28;20124;-73
2023/07/03 11:12:43;;;;;;;1.95;1.23;;;21.60;61.90;;;;;;6231162;28;20024;-72
2023/07/03 11:16:14;;;;;;;2.10;1.20;;;21.60;62.10;;;;;;6272834;28;20441;-72
2023/07/03 11:19:38;;;;;;;3.75;1.40;;;21.70;61.90;;;;;;6243531;28;20063;-72
2023/07/03 11:23:03;;;;;;;3.00;1.40;;;21.70;61.60;;;;;;6271818;28;20495;-73
2023/07/03 11:26:36;;;;;;;2.30;1.27;;;21.70;61.10;;;;;;6269248;28;20020;-73
2023/07/03 11:29:37;;;;;;;3.92;1.77;;;21.70;61.30;;;;;;6270802;28;20488;-74
2023/07/03 11:32:39;;;;;;;2.55;1.40;;;21.70;61.50;;;;;;6262435;28;20075;-73
2023/07/03 11:35:51;;;;;;;2.33;1.25;;;21.70;61.60;;;;;;6261127;28;20140;-73
2023/07/03 11:39:10;;;;;;;2.10;1.42;;;21.70;61.80;;;;;;6271112;28;20021;-73
2023/07/03 11:42:12;;;;;;;3.38;1.45;;;21.70;61.80;;;;;;6270898;28;20033;-74
2023/07/03 11:45:26;;;;;;;2.22;1.20;;;21.70;61.80;;;;;;6271300;28;20017;-73
2023/07/03 11:48:31;;;;;;;2.25;1.20;;;21.70;61.90;;;;;;6271917;28;20037;-73
2023/07/03 11:51:37;;;;;;;3.03;1.52;;;21.70;62.00;;;;;;6241786;28;20025;-74
2023/07/03 11:54:39;;;;;;;2.35;1.38;;;21.70;62.00;;;;;;6255247;28;20029;-73
2023/07/03 11:57:44;;;;;;;2.88;1.50;;;21.70;62.00;;;;;;6271504;28;20132;-73
2023/07/03 12:00:44;;;;;;;2.95;1.42;;;21.70;61.90;;;;;;6271877;28;20025;-73
2023/07/03 12:03:50;;;;;;;2.22;1.67;;;21.70;62.00;;;;;;6268738;28;20032;-73
2023/07/03 12:06:51;;;;;;;2.03;1.20;;;21.70;62.00;;;;;;6259056;28;20707;-74
2023/07/03 12:09:52;;;;;;;2.08;1.25;;;21.70;62.00;;;;;;6271677;28;20025;-73
2023/07/03 12:13:30;;;;;;;2.53;1.35;;;21.70;62.00;;;;;;6263344;28;20475;-74
2023/07/03 12:16:34;;;;;;;2.60;1.48;;;21.70;62.00;;;;;;6267031;28;20096;-73
2023/07/03 12:19:35;;;;;;;1.53;1.00;;;21.70;62.00;;;;;;6271665;28;20025;-74
2023/07/03 12:22:39;;;;;;;2.17;1.52;;;21.70;62.00;;;;;;6270447;28;20361;-73
2023/07/03 12:25:40;;;;;;;1.75;1.30;;;21.70;62.00;;;;;;6259810;28;20018;-73
2023/07/03 12:28:41;;;;;;;1.38;0.90;;;21.70;62.00;;;;;;6269708;28;20021;-73
2023/07/03 12:31:53;;;;;;;2.90;1.27;;;21.70;62.00;;;;;;6266820;28;20073;-73
2023/07/03 12:35:11;;;;;;;1.58;1.10;;;21.70;62.00;;;;;;6271254;28;20480;-73
2023/07/03 12:38:13;;;;;;;1.73;1.10;;;21.60;61.90;;;;;;6270156;28;20025;-74
2023/07/03 12:41:14;;;;;;;2.47;1.30;;;21.70;62.00;;;;;;6270660;28;20074;-73
2023/07/03 12:44:15;;;;;;;3.20;1.73;;;21.70;62.00;;;;;;6270754;28;20103;-73
2023/07/03 12:47:18;;;;;;;1.85;1.23;;;21.70;62.10;;;;;;6270153;28;20433;-74
2023/07/03 12:50:18;;;;;;;1.52;1.20;;;21.70;62.10;;;;;;6267185;28;20607;-73
2023/07/03 12:53:19;;;;;;;1.50;0.98;;;21.70;62.00;;;;;;6270521;28;20071;-73
2023/07/03 12:56:20;;;;;;;1.48;1.15;;;21.70;62.00;;;;;;6269913;28;20024;-73
2023/07/03 12:59:22;;;;;;;1.48;1.00;;;21.70;62.10;;;;;;6270524;28;20112;-73
2023/07/03 13:02:25;;;;;;;1.58;1.13;;;21.70;62.00;;;;;;6252989;28;20056;-73
2023/07/03 13:05:29;;;;;;;1.95;1.10;;;21.70;62.00;;;;;;6270394;28;20104;-73
2023/07/03 13:08:30;;;;;;;1.77;1.10;;;21.70;62.00;;;;;;6269533;28;20434;-74
2023/07/03 13:11:43;;;;;;;3.35;1.25;;;21.70;62.00;;;;;;6270090;28;20267;-73
2023/07/03 13:15:09;;;;;;;2.10;1.13;;;21.70;62.00;;;;;;6248225;28;20037;-73
2023/07/03 13:18:12;;;;;;;1.77;1.10;;;21.70;62.00;;;;;;6258678;28;20025;-72
2023/07/03 13:21:13;;;;;;;1.90;1.23;;;21.70;62.00;;;;;;6269565;28;20029;-73
2023/07/03 13:24:15;;;;;;;2.05;1.10;;;21.70;62.10;;;;;;6268504;28;20464;-73
2023/07/03 13:27:25;;;;;;;2.65;1.33;;;21.70;62.00;;;;;;6262907;28;20025;-73
2023/07/03 13:30:28;;;;;;;1.85;1.05;;;21.70;62.00;;;;;;6270028;28;20040;-73
2023/07/03 13:33:29;;;;;;;1.75;1.10;;;21.70;62.00;;;;;;6269658;28;20764;-74
2023/07/03 13:36:37;;;;;;;1.92;1.00;;;21.70;62.00;;;;;;6269796;28;20025;-73
2023/07/03 13:39:38;;;;;;;2.00;1.30;;;21.70;61.90;;;;;;6269409;28;20115;-73
2023/07/03 13:42:38;;;;;;;1.27;0.90;;;21.70;61.90;;;;;;6261975;28;20037;-73
2023/07/03 13:45:39;;;;;;;2.10;1.20;;;21.70;61.90;;;;;;6270366;28;20123;-74
2023/07/03 13:48:39;;;;;;;2.22;1.23;;;21.70;61.90;;;;;;6265959;28;20573;-73
2023/07/03 13:51:41;;;;;;;1.08;0.90;;;21.70;61.90;;;;;;6269734;28;20056;-74
2023/07/03 13:54:42;;;;;;;1.50;1.00;;;21.70;62.00;;;;;;6269371;28;20071;-73
2023/07/03 13:57:43;;;;;;;1.10;0.88;;;21.70;62.00;;;;;;6268893;28;20025;-74
2023/07/03 14:00:44;;;;;;;2.78;1.50;;;21.70;62.00;;;;;;6269563;28;20024;-73
2023/07/03 14:03:44;;;;;;;2.28;1.23;;;21.70;62.00;;;;;;6269472;28;20128;-73
2023/07/03 14:06:46;;;;;;;1.85;1.10;;;21.70;62.00;;;;;;6269053;28;20443;-73
2023/07/03 14:09:46;;;;;;;1.63;1.05;;;21.70;62.00;;;;;;6269088;28;20017;-75
2023/07/03 14:12:47;;;;;;;1.20;0.98;;;21.70;62.00;;;;;;6268350;28;20032;-73
2023/07/03 14:15:48;;;;;;;1.67;1.05;;;21.70;62.10;;;;;;6259263;28;20079;-73
2023/07/03 14:18:48;;;;;;;1.85;1.00;;;21.70;62.10;;;;;;6265583;28;20083;-73
2023/07/03 14:21:49;;;;;;;2.47;1.33;;;21.60;61.90;;;;;;6269431;28;20037;-73
2023/07/03 14:24:50;;;;;;;1.52;1.05;;;21.60;61.80;;;;;;6261729;28;20480;-73
2023/07/03 14:27:51;;;;;;;1.77;1.20;;;21.60;61.90;;;;;;6268764;28;20021;-73
2023/07/03 14:30:53;;;;;;;2.90;1.30;;;21.60;61.90;;;;;;6264044;28;20056;-73
2023/07/03 14:33:54;;;;;;;1.42;1.05;;;21.70;62.00;;;;;;6268941;28;20024;-73
2023/07/03 14:36:54;;;;;;;1.38;1.00;;;21.60;61.90;;;;;;6267940;28;20054;-73
2023/07/03 14:39:57;;;;;;;1.40;1.13;;;21.60;61.90;;;;;;6273258;28;20021;-73
2023/07/03 14:42:57;;;;;;;2.03;0.95;;;21.70;62.00;;;;;;6272702;28;20090;-74
2023/07/03 14:45:58;;;;;;;2.35;1.17;;;21.60;61.90;;;;;;6269731;28;20511;-73
2023/07/03 14:48:59;;;;;;;4.28;1.30;;;21.60;61.90;;;;;;6273292;28;20029;-74
2023/07/03 14:51:59;;;;;;;1.98;1.23;;;21.60;61.90;;;;;;6273385;28;20088;-73
2023/07/03 14:55:00;;;;;;;2.40;0.90;;;21.60;61.90;;;;;;6269634;28;20045;-73
2023/07/03 14:58:00;;;;;;;1.35;1.00;;;21.60;61.90;;;;;;6272839;28;20078;-74
2023/07/03 15:01:02;;;;;;;2.50;1.30;;;21.60;61.90;;;;;;6272801;28;20111;-72
2023/07/03 15:04:05;;;;;;;1.65;1.10;;;21.60;61.90;;;;;;6263923;28;20028;-73
2023/07/03 15:07:06;;;;;;;1.27;0.93;;;21.60;61.90;;;;;;6269304;28;20060;-73
2023/07/03 15:10:08;;;;;;;2.10;1.10;;;21.60;61.90;;;;;;6272855;28;20020;-74
2023/07/03 15:13:09;;;;;;;1.58;1.02;;;21.60;61.90;;;;;;6272937;28;20032;-73
2023/07/03 15:16:10;;;;;;;1.58;1.13;;;21.60;61.90;;;;;;6257667;28;20079;-73
2023/07/03 15:19:14;;;;;;;1.40;0.93;;;21.60;61.80;;;;;;6254854;28;20033;-73
2023/07/03 15:22:15;;;;;;;1.30;1.02;;;21.60;61.90;;;;;;6272637;28;20033;-73
2023/07/03 15:25:15;;;;;;;2.70;1.30;;;21.60;61.90;;;;;;6265291;28;20183;-74
2023/07/03 15:28:16;;;;;;;1.95;1.15;;;21.60;61.90;;;;;;6270225;28;20021;-73
2023/07/03 15:31:16;;;;;;;1.50;0.98;;;21.70;61.90;;;;;;6272134;28;20068;-73
2023/07/03 15:34:17;;;;;;;1.88;1.15;;;21.70;61.80;;;;;;6272100;28;20100;-72
2023/07/03 15:37:18;;;;;;;2.03;1.25;;;21.70;61.60;;;;;;6272269;28;20533;-73
2023/07/03 15:40:18;;;;;;;2.13;1.20;;;21.70;61.70;;;;;;6271808;28;20415;-73
2023/07/03 15:43:20;;;;;;;2.00;1.10;;;21.70;61.90;;;;;;6272070;28;20083;-73
2023/07/03 15:46:22;;;;;;;1.85;1.10;;;21.70;61.80;;;;;;6264678;28;20052;-73
2023/07/03 15:49:22;;;;;;;2.35;1.17;;;21.70;61.90;;;;;;6271197;28;20033;-72
2023/07/03 15:52:23;;;;;;;1.92;1.13;;;21.70;62.00;;;;;;6271422;28;20017;-72
2023/07/03 15:55:24;;;;;;;1.35;0.98;;;21.70;61.90;;;;;;6258177;28;20025;-73
2023/07/03 15:58:27;;;;;;;3.17;1.70;;;21.60;61.90;;;;;;6263976;28;20071;-74